sensor_id;sensor_type;location;lat;lon;timestamp;pressure;altitude;pressure_sealevel;temperature;humidity
50430;BME280;36359;41.556;-8.418;2023-12-29T00:01:34;61887.34;;;13.17;100.00
50430;BME280;36359;41.556;-8.418;2023-12-29T00:04:00;61888.44;;;13.18;100.00
50430;BME280;36359;41.556;-8.418;2023-12-29T00:06:26;61898.09;;;13.22;100.00
50430;BME280;36359;41.556;-8.418;2023-12-29T00:08:52;61904.50;;;13.31;100.00
50430;BME280;36359;41.556;-8.418;2023-12-29T00:11:21;61909.84;;;13.38;100.00
50430;BME280;36359;41.556;-8.418;2023-12-29T00:13:47;61914.09;;;13.43;100.00
50430;BME280;36359;41.556;-8.418;2023-12-29T00:16:14;61911.44;;;13.37;100.00
50430;BME280;36359;41.556;-8.418;2023-12-29T00:18:40;61888.97;;;13.18;100.00
50430;BME280;36359;41.556;-8.418;2023-12-29T00:21:06;61889.47;;;13.22;100.00
50430;BME280;36359;41.556;-8.418;2023-12-29T00:23:31;61892.69;;;13.25;100.00
50430;BME280;36359;41.556;-8.418;2023-12-29T00:25:57;61876.69;;;13.07;100.00
50430;BME280;36359;41.556;-8.418;2023-12-29T00:28:23;61867.56;;;13.01;100.00
50430;BME280;36359;41.556;-8.418;2023-12-29T00:30:49;61868.13;;;12.99;100.00
50430;BME280;36359;41.556;-8.418;2023-12-29T00:33:15;61874.00;;;13.07;100.00
50430;BME280;36359;41.556;-8.418;2023-12-29T00:35:41;61891.66;;;13.21;100.00
50430;BME280;36359;41.556;-8.418;2023-12-29T00:38:08;61886.81;;;13.16;100.00
50430;BME280;36359;41.556;-8.418;2023-12-29T00:40:33;61898.06;;;13.27;100.00
50430;BME280;36359;41.556;-8.418;2023-12-29T00:43:02;61895.38;;;13.25;100.00
50430;BME280;36359;41.556;-8.418;2023-12-29T00:45:28;61883.13;;;13.10;100.00
50430;BME280;36359;41.556;-8.418;2023-12-29T00:47:59;61883.66;;;13.11;100.00
50430;BME280;36359;41.556;-8.418;2023-12-29T00:50:25;61878.81;;;13.09;100.00
50430;BME280;36359;41.556;-8.418;2023-12-29T00:52:52;61890.59;;;13.17;100.00
50430;BME280;36359;41.556;-8.418;2023-12-29T00:55:18;61897.53;;;13.27;100.00
50430;BME280;36359;41.556;-8.418;2023-12-29T00:57:43;61915.75;;;13.42;100.00
50430;BME280;36359;41.556;-8.418;2023-12-29T01:00:11;61908.75;;;13.37;100.00
50430;BME280;36359;41.556;-8.418;2023-12-29T01:02:38;61913.06;;;13.39;100.00
50430;BME280;36359;41.556;-8.418;2023-12-29T01:05:05;61911.44;;;13.40;100.00
50430;BME280;36359;41.556;-8.418;2023-12-29T01:07:31;61905.00;;;13.34;100.00
50430;BME280;36359;41.556;-8.418;2023-12-29T01:09:56;61898.59;;;13.28;100.00
50430;BME280;36359;41.556;-8.418;2023-12-29T01:12:22;61900.19;;;13.29;100.00
50430;BME280;36359;41.556;-8.418;2023-12-29T01:14:48;61898.59;;;13.28;100.00
50430;BME280;36359;41.556;-8.418;2023-12-29T01:17:14;61884.66;;;13.17;100.00
50430;BME280;36359;41.556;-8.418;2023-12-29T01:19:39;61880.44;;;13.08;100.00
50430;BME280;36359;41.556;-8.418;2023-12-29T01:22:06;61877.75;;;13.08;100.00
50430;BME280;36359;41.556;-8.418;2023-12-29T01:24:32;61882.00;;;13.14;100.00
50430;BME280;36359;41.556;-8.418;2023-12-29T01:26:57;61889.00;;;13.16;100.00
50430;BME280;36359;41.556;-8.418;2023-12-29T01:29:24;61875.59;;;13.06;100.00
50430;BME280;36359;41.556;-8.418;2023-12-29T01:31:50;61877.72;;;13.10;100.00
50430;BME280;36359;41.556;-8.418;2023-12-29T01:34:16;61871.88;;;13.02;100.00
50430;BME280;36359;41.556;-8.418;2023-12-29T01:36:42;61844.59;;;12.79;100.00
50430;BME280;36359;41.556;-8.418;2023-12-29T01:39:07;61858.53;;;12.89;100.00
50430;BME280;36359;41.556;-8.418;2023-12-29T01:41:33;61857.47;;;12.88;100.00
50430;BME280;36359;41.556;-8.418;2023-12-29T01:46:34;61868.13;;;12.99;100.00
50430;BME280;36359;41.556;-8.418;2023-12-29T01:49:01;61864.41;;;12.92;100.00
50430;BME280;36359;41.556;-8.418;2023-12-29T01:51:27;61876.16;;;13.06;100.00
50430;BME280;36359;41.556;-8.418;2023-12-29T01:53:55;61892.72;;;13.19;100.00
50430;BME280;36359;41.556;-8.418;2023-12-29T01:56:22;61870.81;;;13.01;100.00
50430;BME280;36359;41.556;-8.418;2023-12-29T01:58:49;61866.50;;;13.00;100.00
50430;BME280;36359;41.556;-8.418;2023-12-29T02:01:17;61860.13;;;12.91;100.00
50430;BME280;36359;41.556;-8.418;2023-12-29T02:03:44;61866.00;;;12.96;100.00
50430;BME280;36359;41.556;-8.418;2023-12-29T02:06:12;61862.78;;;12.93;100.00
50430;BME280;36359;41.556;-8.418;2023-12-29T02:08:40;61853.19;;;12.84;100.00
50430;BME280;36359;41.556;-8.418;2023-12-29T02:11:06;61842.50;;;12.74;100.00
50430;BME280;36359;41.556;-8.418;2023-12-29T02:13:33;61824.34;;;12.57;100.00
50430;BME280;36359;41.556;-8.418;2023-12-29T02:16:08;61827.03;;;12.59;100.00
50430;BME280;36359;41.556;-8.418;2023-12-29T02:18:36;61838.78;;;12.68;100.00
50430;BME280;36359;41.556;-8.418;2023-12-29T02:21:03;61849.97;;;12.81;100.00
50430;BME280;36359;41.556;-8.418;2023-12-29T02:23:29;61862.25;;;12.93;100.00
50430;BME280;36359;41.556;-8.418;2023-12-29T02:26:02;61855.84;;;12.87;100.00
50430;BME280;36359;41.556;-8.418;2023-12-29T02:28:33;61857.47;;;12.88;100.00
50430;BME280;36359;41.556;-8.418;2023-12-29T02:31:07;61853.19;;;12.84;100.00
50430;BME280;36359;41.556;-8.418;2023-12-29T02:33:38;61850.00;;;12.79;100.00
50430;BME280;36359;41.556;-8.418;2023-12-29T02:36:06;61848.38;;;12.80;100.00
50430;BME280;36359;41.556;-8.418;2023-12-29T02:38:32;61837.16;;;12.69;100.00
50430;BME280;36359;41.556;-8.418;2023-12-29T02:40:59;61845.72;;;12.75;100.00
50430;BME280;36359;41.556;-8.418;2023-12-29T02:43:25;61836.09;;;12.68;100.00
50430;BME280;36359;41.556;-8.418;2023-12-29T02:45:51;61839.81;;;12.74;100.00
50430;BME280;36359;41.556;-8.418;2023-12-29T02:48:18;61856.38;;;12.87;100.00
50430;BME280;36359;41.556;-8.418;2023-12-29T02:50:45;61849.44;;;12.81;100.00
50430;BME280;36359;41.556;-8.418;2023-12-29T02:53:11;61840.38;;;12.72;100.00
50430;BME280;36359;41.556;-8.418;2023-12-29T02:55:37;61818.47;;;12.51;100.00
50430;BME280;36359;41.556;-8.418;2023-12-29T02:58:03;61808.34;;;12.41;100.00
50430;BME280;36359;41.556;-8.418;2023-12-29T03:00:29;61823.88;;;12.51;100.00
50430;BME280;36359;41.556;-8.418;2023-12-29T03:02:54;61822.75;;;12.55;100.00
50430;BME280;36359;41.556;-8.418;2023-12-29T03:05:20;61825.94;;;12.58;100.00
50430;BME280;36359;41.556;-8.418;2023-12-29T03:07:46;61832.34;;;12.64;100.00
50430;BME280;36359;41.556;-8.418;2023-12-29T03:10:12;61836.09;;;12.68;100.00
50430;BME280;36359;41.556;-8.418;2023-12-29T03:12:38;61829.69;;;12.62;100.00
50430;BME280;36359;41.556;-8.418;2023-12-29T03:15:03;61826.41;;;12.64;100.00
50430;BME280;36359;41.556;-8.418;2023-12-29T03:17:29;61832.91;;;12.65;100.00
50430;BME280;36359;41.556;-8.418;2023-12-29T03:19:55;61835.03;;;12.64;100.00
50430;BME280;36359;41.556;-8.418;2023-12-29T03:22:21;61822.22;;;12.55;100.00
50430;BME280;36359;41.556;-8.418;2023-12-29T03:24:46;61814.75;;;12.47;100.00
50430;BME280;36359;41.556;-8.418;2023-12-29T03:27:12;61806.69;;;12.45;100.00
50430;BME280;36359;41.556;-8.418;2023-12-29T03:29:38;61815.28;;;12.45;100.00
50430;BME280;36359;41.556;-8.418;2023-12-29T03:32:04;61830.75;;;12.63;100.00
50430;BME280;36359;41.556;-8.418;2023-12-29T03:34:29;61839.28;;;12.73;100.00
50430;BME280;36359;41.556;-8.418;2023-12-29T03:36:55;61832.91;;;12.65;100.00
50430;BME280;36359;41.556;-8.418;2023-12-29T03:39:21;61814.75;;;12.47;100.00
50430;BME280;36359;41.556;-8.418;2023-12-29T03:41:47;61826.47;;;12.59;100.00
50430;BME280;36359;41.556;-8.418;2023-12-29T03:44:13;61828.13;;;12.55;100.00
50430;BME280;36359;41.556;-8.418;2023-12-29T03:46:39;61820.56;;;12.56;100.00
50430;BME280;36359;41.556;-8.418;2023-12-29T03:49:04;61822.72;;;12.58;100.00
50430;BME280;36359;41.556;-8.418;2023-12-29T03:51:30;61829.69;;;12.62;100.00
50430;BME280;36359;41.556;-8.418;2023-12-29T03:53:56;61826.47;;;12.59;100.00
50430;BME280;36359;41.556;-8.418;2023-12-29T03:56:24;61830.22;;;12.62;100.00
50430;BME280;36359;41.556;-8.418;2023-12-29T03:58:50;61816.88;;;12.47;100.00
50430;BME280;36359;41.556;-8.418;2023-12-29T04:01:16;61818.44;;;12.54;100.00
50430;BME280;36359;41.556;-8.418;2023-12-29T04:03:43;61807.78;;;12.41;100.00
50430;BME280;36359;41.556;-8.418;2023-12-29T04:06:09;61799.78;;;12.33;100.00
50430;BME280;36359;41.556;-8.418;2023-12-29T04:08:36;61795.50;;;12.29;100.00
50430;BME280;36359;41.556;-8.418;2023-12-29T04:11:03;61797.66;;;12.31;100.00
50430;BME280;36359;41.556;-8.418;2023-12-29T04:13:29;61802.50;;;12.33;100.00
50430;BME280;36359;41.556;-8.418;2023-12-29T04:15:55;61794.97;;;12.28;100.00
50430;BME280;36359;41.556;-8.418;2023-12-29T04:18:22;61791.75;;;12.28;100.00
50430;BME280;36359;41.556;-8.418;2023-12-29T04:20:48;61799.78;;;12.33;100.00
50430;BME280;36359;41.556;-8.418;2023-12-29T04:23:14;61809.94;;;12.43;100.00
50430;BME280;36359;41.556;-8.418;2023-12-29T04:25:40;61805.13;;;12.38;100.00
50430;BME280;36359;41.556;-8.418;2023-12-29T04:28:07;61807.78;;;12.41;100.00
50430;BME280;36359;41.556;-8.418;2023-12-29T04:30:33;61807.78;;;12.41;100.00
50430;BME280;36359;41.556;-8.418;2023-12-29T04:32:59;61812.09;;;12.42;100.00
50430;BME280;36359;41.556;-8.418;2023-12-29T04:35:25;61821.16;;;12.51;100.00
50430;BME280;36359;41.556;-8.418;2023-12-29T04:37:51;61813.66;;;12.46;100.00
50430;BME280;36359;41.556;-8.418;2023-12-29T04:40:17;61832.91;;;12.65;100.00
50430;BME280;36359;41.556;-8.418;2023-12-29T04:42:43;61837.72;;;12.67;100.00
50430;BME280;36359;41.556;-8.418;2023-12-29T04:45:10;61832.91;;;12.65;100.00
50430;BME280;36359;41.556;-8.418;2023-12-29T04:47:36;61820.06;;;12.53;100.00
50430;BME280;36359;41.556;-8.418;2023-12-29T04:50:02;61823.28;;;12.56;100.00
50430;BME280;36359;41.556;-8.418;2023-12-29T04:52:28;61816.34;;;12.49;100.00
50430;BME280;36359;41.556;-8.418;2023-12-29T04:54:54;61816.28;;;12.54;100.00
50430;BME280;36359;41.556;-8.418;2023-12-29T04:57:19;61840.91;;;12.72;100.00
50430;BME280;36359;41.556;-8.418;2023-12-29T04:59:45;61848.38;;;12.80;100.00
50430;BME280;36359;41.556;-8.418;2023-12-29T05:02:11;61845.72;;;12.77;100.00
50430;BME280;36359;41.556;-8.418;2023-12-29T05:04:36;61823.75;;;12.61;100.00
50430;BME280;36359;41.556;-8.418;2023-12-29T05:07:05;61830.75;;;12.63;100.00
50430;BME280;36359;41.556;-8.418;2023-12-29T05:09:31;61837.72;;;12.67;100.00
50430;BME280;36359;41.556;-8.418;2023-12-29T05:11:56;61831.84;;;12.61;100.00
50430;BME280;36359;41.556;-8.418;2023-12-29T05:14:22;61831.81;;;12.64;100.00
50430;BME280;36359;41.556;-8.418;2023-12-29T05:16:48;61827.56;;;12.60;100.00
50430;BME280;36359;41.556;-8.418;2023-12-29T05:19:13;61815.81;;;12.48;100.00
50430;BME280;36359;41.556;-8.418;2023-12-29T05:21:39;61820.63;;;12.53;100.00
50430;BME280;36359;41.556;-8.418;2023-12-29T05:24:05;61831.28;;;12.63;100.00
50430;BME280;36359;41.556;-8.418;2023-12-29T05:26:31;61840.38;;;12.72;100.00
50430;BME280;36359;41.556;-8.418;2023-12-29T05:28:57;61834.47;;;12.69;100.00
50430;BME280;36359;41.556;-8.418;2023-12-29T05:31:23;61831.25;;;12.66;100.00
50430;BME280;36359;41.556;-8.418;2023-12-29T05:33:49;61832.38;;;12.62;100.00
50430;BME280;36359;41.556;-8.418;2023-12-29T05:36:14;61823.84;;;12.54;100.00
50430;BME280;36359;41.556;-8.418;2023-12-29T05:38:40;61815.81;;;12.48;100.00
50430;BME280;36359;41.556;-8.418;2023-12-29T05:41:07;61821.16;;;12.54;100.00
50430;BME280;36359;41.556;-8.418;2023-12-29T05:43:33;61823.31;;;12.53;100.00
50430;BME280;36359;41.556;-8.418;2023-12-29T05:46:00;61819.53;;;12.52;100.00
50430;BME280;36359;41.556;-8.418;2023-12-29T05:48:26;61829.16;;;12.61;100.00
50430;BME280;36359;41.556;-8.418;2023-12-29T05:50:53;61831.81;;;12.64;100.00
50430;BME280;36359;41.556;-8.418;2023-12-29T05:53:19;61828.63;;;12.61;100.00
50430;BME280;36359;41.556;-8.418;2023-12-29T05:55:45;61832.91;;;12.65;100.00
50430;BME280;36359;41.556;-8.418;2023-12-29T05:58:11;61830.22;;;12.62;100.00
50430;BME280;36359;41.556;-8.418;2023-12-29T06:00:37;61822.19;;;12.57;100.00
50430;BME280;36359;41.556;-8.418;2023-12-29T06:03:05;61834.50;;;12.66;100.00
50430;BME280;36359;41.556;-8.418;2023-12-29T06:05:32;61833.97;;;12.66;100.00
50430;BME280;36359;41.556;-8.418;2023-12-29T06:07:58;61817.88;;;12.56;100.00
50430;BME280;36359;41.556;-8.418;2023-12-29T06:10:23;61809.41;;;12.42;100.00
50430;BME280;36359;41.556;-8.418;2023-12-29T06:12:49;61817.94;;;12.50;100.00
50430;BME280;36359;41.556;-8.418;2023-12-29T06:15:15;61821.69;;;12.52;100.00
50430;BME280;36359;41.556;-8.418;2023-12-29T06:17:41;61821.16;;;12.51;100.00
50430;BME280;36359;41.556;-8.418;2023-12-29T06:20:08;61830.75;;;12.63;100.00
50430;BME280;36359;41.556;-8.418;2023-12-29T06:22:39;61838.72;;;12.73;100.00
50430;BME280;36359;41.556;-8.418;2023-12-29T06:25:09;61851.03;;;12.82;100.00
50430;BME280;36359;41.556;-8.418;2023-12-29T06:30:11;61867.59;;;12.98;100.00
50430;BME280;36359;41.556;-8.418;2023-12-29T06:32:37;61865.97;;;12.99;100.00
50430;BME280;36359;41.556;-8.418;2023-12-29T06:35:04;61848.91;;;12.80;100.00
50430;BME280;36359;41.556;-8.418;2023-12-29T06:37:30;61847.84;;;12.79;100.00
50430;BME280;36359;41.556;-8.418;2023-12-29T06:39:56;61846.25;;;12.78;100.00
50430;BME280;36359;41.556;-8.418;2023-12-29T06:42:22;61831.81;;;12.64;100.00
50430;BME280;36359;41.556;-8.418;2023-12-29T06:44:48;61820.06;;;12.53;100.00
50430;BME280;36359;41.556;-8.418;2023-12-29T06:47:14;61828.63;;;12.61;100.00
50430;BME280;36359;41.556;-8.418;2023-12-29T06:49:40;61821.16;;;12.54;100.00
50430;BME280;36359;41.556;-8.418;2023-12-29T06:52:06;61839.84;;;12.69;100.00
50430;BME280;36359;41.556;-8.418;2023-12-29T06:54:33;61831.34;;;12.58;100.00
50430;BME280;36359;41.556;-8.418;2023-12-29T06:56:59;61819.00;;;12.52;100.00
50430;BME280;36359;41.556;-8.418;2023-12-29T06:59:25;61835.59;;;12.65;100.00
50430;BME280;36359;41.556;-8.418;2023-12-29T07:01:51;61820.56;;;12.56;100.00
50430;BME280;36359;41.556;-8.418;2023-12-29T07:04:17;61831.25;;;12.66;100.00
50430;BME280;36359;41.556;-8.418;2023-12-29T07:06:43;61821.16;;;12.51;100.00
50430;BME280;36359;41.556;-8.418;2023-12-29T07:09:08;61820.56;;;12.56;100.00
50430;BME280;36359;41.556;-8.418;2023-12-29T07:11:35;61821.69;;;12.52;100.00
50430;BME280;36359;41.556;-8.418;2023-12-29T07:14:01;61820.63;;;12.50;100.00
50430;BME280;36359;41.556;-8.418;2023-12-29T07:16:27;61819.53;;;12.52;100.00
50430;BME280;36359;41.556;-8.418;2023-12-29T07:18:53;61816.88;;;12.49;100.00
50430;BME280;36359;41.556;-8.418;2023-12-29T07:21:19;61813.66;;;12.46;100.00
50430;BME280;36359;41.556;-8.418;2023-12-29T07:23:45;61808.28;;;12.44;100.00
50430;BME280;36359;41.556;-8.418;2023-12-29T07:26:11;61814.19;;;12.47;100.00
50430;BME280;36359;41.556;-8.418;2023-12-29T07:28:37;61815.28;;;12.48;100.00
50430;BME280;36359;41.556;-8.418;2023-12-29T07:31:03;61827.56;;;12.60;100.00
50430;BME280;36359;41.556;-8.418;2023-12-29T07:33:30;61819.56;;;12.49;100.00
50430;BME280;36359;41.556;-8.418;2023-12-29T07:35:55;61816.88;;;12.49;100.00
50430;BME280;36359;41.556;-8.418;2023-12-29T07:38:21;61799.78;;;12.33;100.00
50430;BME280;36359;41.556;-8.418;2023-12-29T07:40:47;61807.25;;;12.40;100.00
50430;BME280;36359;41.556;-8.418;2023-12-29T07:43:16;61804.03;;;12.40;100.00
50430;BME280;36359;41.556;-8.418;2023-12-29T07:45:41;61809.94;;;12.43;100.00
50430;BME280;36359;41.556;-8.418;2023-12-29T07:48:09;61815.25;;;12.50;100.00
50430;BME280;36359;41.556;-8.418;2023-12-29T07:50:34;61828.09;;;12.60;100.00
50430;BME280;36359;41.556;-8.418;2023-12-29T07:53:00;61815.75;;;12.54;100.00
50430;BME280;36359;41.556;-8.418;2023-12-29T07:55:29;61820.63;;;12.53;100.00
50430;BME280;36359;41.556;-8.418;2023-12-29T07:57:56;61820.63;;;12.53;100.00
50430;BME280;36359;41.556;-8.418;2023-12-29T08:00:21;61838.75;;;12.70;100.00
50430;BME280;36359;41.556;-8.418;2023-12-29T08:02:48;61825.91;;;12.61;100.00
50430;BME280;36359;41.556;-8.418;2023-12-29T08:05:14;61822.75;;;12.53;100.00
50430;BME280;36359;41.556;-8.418;2023-12-29T08:07:42;61827.00;;;12.62;100.00
50430;BME280;36359;41.556;-8.418;2023-12-29T08:10:09;61812.03;;;12.47;100.00
50430;BME280;36359;41.556;-8.418;2023-12-29T08:12:35;61811.53;;;12.44;100.00
50430;BME280;36359;41.556;-8.418;2023-12-29T08:15:03;61813.16;;;12.43;100.00
50430;BME280;36359;41.556;-8.418;2023-12-29T08:17:29;61820.56;;;12.56;100.00
50430;BME280;36359;41.556;-8.418;2023-12-29T08:19:56;61816.88;;;12.49;100.00
50430;BME280;36359;41.556;-8.418;2023-12-29T08:22:22;61815.81;;;12.48;100.00
50430;BME280;36359;41.556;-8.418;2023-12-29T08:24:48;61814.16;;;12.49;100.00
50430;BME280;36359;41.556;-8.418;2023-12-29T08:27:13;61816.88;;;12.49;100.00
50430;BME280;36359;41.556;-8.418;2023-12-29T08:29:40;61824.34;;;12.57;100.00
50430;BME280;36359;41.556;-8.418;2023-12-29T08:32:07;61821.16;;;12.54;100.00
50430;BME280;36359;41.556;-8.418;2023-12-29T08:34:33;61829.16;;;12.59;100.00
50430;BME280;36359;41.556;-8.418;2023-12-29T08:37:03;61824.88;;;12.57;100.00
50430;BME280;36359;41.556;-8.418;2023-12-29T08:39:29;61819.53;;;12.52;100.00
50430;BME280;36359;41.556;-8.418;2023-12-29T08:41:55;61825.41;;;12.58;100.00
50430;BME280;36359;41.556;-8.418;2023-12-29T08:44:21;61817.94;;;12.50;100.00
50430;BME280;36359;41.556;-8.418;2023-12-29T08:46:47;61823.28;;;12.56;100.00
50430;BME280;36359;41.556;-8.418;2023-12-29T08:49:12;61835.53;;;12.67;100.00
50430;BME280;36359;41.556;-8.418;2023-12-29T08:51:38;61822.22;;;12.55;100.00
50430;BME280;36359;41.556;-8.418;2023-12-29T08:54:04;61819.53;;;12.52;100.00
50430;BME280;36359;41.556;-8.418;2023-12-29T08:56:30;61798.72;;;12.32;100.00
50430;BME280;36359;41.556;-8.418;2023-12-29T08:58:56;61813.66;;;12.46;100.00
50430;BME280;36359;41.556;-8.418;2023-12-29T09:01:22;61812.03;;;12.47;100.00
50430;BME280;36359;41.556;-8.418;2023-12-29T09:03:47;61804.56;;;12.40;100.00
50430;BME280;36359;41.556;-8.418;2023-12-29T09:06:13;61799.25;;;12.33;100.00
50430;BME280;36359;41.556;-8.418;2023-12-29T09:08:39;61795.50;;;12.29;100.00
50430;BME280;36359;41.556;-8.418;2023-12-29T09:11:05;61808.34;;;12.41;100.00
50430;BME280;36359;41.556;-8.418;2023-12-29T09:13:31;61805.13;;;12.38;100.00
50430;BME280;36359;41.556;-8.418;2023-12-29T09:15:58;61821.06;;;12.59;100.00
50430;BME280;36359;41.556;-8.418;2023-12-29T09:18:24;61824.84;;;12.60;100.00
50430;BME280;36359;41.556;-8.418;2023-12-29T09:20:50;61826.50;;;12.56;100.00
50430;BME280;36359;41.556;-8.418;2023-12-29T09:23:16;61832.91;;;12.65;100.00
50430;BME280;36359;41.556;-8.418;2023-12-29T09:25:42;61819.53;;;12.52;100.00
50430;BME280;36359;41.556;-8.418;2023-12-29T09:28:08;61811.03;;;12.41;100.00
50430;BME280;36359;41.556;-8.418;2023-12-29T09:30:33;61800.28;;;12.36;100.00
50430;BME280;36359;41.556;-8.418;2023-12-29T09:32:59;61813.66;;;12.46;100.00
50430;BME280;36359;41.556;-8.418;2023-12-29T09:35:25;61803.00;;;12.36;100.00
50430;BME280;36359;41.556;-8.418;2023-12-29T09:37:51;61809.94;;;12.43;100.00
50430;BME280;36359;41.556;-8.418;2023-12-29T09:40:17;61814.19;;;12.47;100.00
50430;BME280;36359;41.556;-8.418;2023-12-29T09:42:44;61806.19;;;12.39;100.00
50430;BME280;36359;41.556;-8.418;2023-12-29T09:45:11;61815.25;;;12.50;100.00
50430;BME280;36359;41.556;-8.418;2023-12-29T09:47:42;61822.22;;;12.55;100.00
50430;BME280;36359;41.556;-8.418;2023-12-29T09:50:11;61822.75;;;12.53;100.00
50430;BME280;36359;41.556;-8.418;2023-12-29T09:52:40;61820.56;;;12.56;100.00
50430;BME280;36359;41.556;-8.418;2023-12-29T09:55:10;61810.97;;;12.46;100.00
50430;BME280;36359;41.556;-8.418;2023-12-29T09:57:40;61827.56;;;12.60;100.00
50430;BME280;36359;41.556;-8.418;2023-12-29T10:00:11;61821.69;;;12.52;100.00
50430;BME280;36359;41.556;-8.418;2023-12-29T10:02:37;61819.50;;;12.55;100.00
50430;BME280;36359;41.556;-8.418;2023-12-29T10:05:04;61804.06;;;12.37;100.00
50430;BME280;36359;41.556;-8.418;2023-12-29T10:07:35;61807.25;;;12.40;100.00
50430;BME280;36359;41.556;-8.418;2023-12-29T10:10:02;61824.34;;;12.57;100.00
50430;BME280;36359;41.556;-8.418;2023-12-29T10:12:30;61819.56;;;12.49;100.00
50430;BME280;36359;41.556;-8.418;2023-12-29T10:15:06;61814.75;;;12.47;100.00
50430;BME280;36359;41.556;-8.418;2023-12-29T10:20:12;61809.91;;;12.45;100.00
50430;BME280;36359;41.556;-8.418;2023-12-29T10:22:48;61825.38;;;12.60;100.00
50430;BME280;36359;41.556;-8.418;2023-12-29T10:25:17;61824.34;;;12.57;100.00
50430;BME280;36359;41.556;-8.418;2023-12-29T10:27:43;61823.28;;;12.56;100.00
50430;BME280;36359;41.556;-8.418;2023-12-29T10:30:10;61822.22;;;12.55;100.00
50430;BME280;36359;41.556;-8.418;2023-12-29T10:32:37;61831.78;;;12.66;100.00
50430;BME280;36359;41.556;-8.418;2023-12-29T10:35:10;61840.38;;;12.72;100.00
50430;BME280;36359;41.556;-8.418;2023-12-29T10:37:37;61832.91;;;12.65;100.00
50430;BME280;36359;41.556;-8.418;2023-12-29T10:40:03;61837.16;;;12.69;100.00
50430;BME280;36359;41.556;-8.418;2023-12-29T10:42:29;61835.00;;;12.69;100.00
50430;BME280;36359;41.556;-8.418;2023-12-29T10:45:09;61841.41;;;12.76;100.00
50430;BME280;36359;41.556;-8.418;2023-12-29T10:47:35;61854.25;;;12.85;100.00
50430;BME280;36359;41.556;-8.418;2023-12-29T10:50:02;61862.22;;;12.95;100.00
50430;BME280;36359;41.556;-8.418;2023-12-29T10:52:31;61857.47;;;12.88;100.00
50430;BME280;36359;41.556;-8.418;2023-12-29T10:55:05;61849.97;;;12.81;100.00
50430;BME280;36359;41.556;-8.418;2023-12-29T10:57:31;61832.31;;;12.67;100.00
50430;BME280;36359;41.556;-8.418;2023-12-29T10:59:58;61818.47;;;12.51;100.00
50430;BME280;36359;41.556;-8.418;2023-12-29T11:02:29;61816.31;;;12.52;100.00
50430;BME280;36359;41.556;-8.418;2023-12-29T11:05:15;61831.81;;;12.64;100.00
50430;BME280;36359;41.556;-8.418;2023-12-29T11:07:41;61842.00;;;12.71;100.00
50430;BME280;36359;41.556;-8.418;2023-12-29T11:10:09;61848.91;;;12.80;100.00
50430;BME280;36359;41.556;-8.418;2023-12-29T11:12:37;61857.47;;;12.88;100.00
50430;BME280;36359;41.556;-8.418;2023-12-29T11:15:06;61866.53;;;12.97;100.00
50430;BME280;36359;41.556;-8.418;2023-12-29T11:17:34;61871.31;;;13.04;100.00
50430;BME280;36359;41.556;-8.418;2023-12-29T11:20:02;61866.00;;;12.96;100.00
50430;BME280;36359;41.556;-8.418;2023-12-29T11:22:30;61877.25;;;13.05;100.00
50430;BME280;36359;41.556;-8.418;2023-12-29T11:24:59;61870.84;;;12.99;100.00
50430;BME280;36359;41.556;-8.418;2023-12-29T11:27:29;61855.88;;;12.84;100.00
50430;BME280;36359;41.556;-8.418;2023-12-29T11:29:57;61856.88;;;12.90;100.00
50430;BME280;36359;41.556;-8.418;2023-12-29T11:32:47;61854.78;;;12.86;100.00
50430;BME280;36359;41.556;-8.418;2023-12-29T11:35:27;61858.53;;;12.89;100.00
50430;BME280;36359;41.556;-8.418;2023-12-29T11:40:44;61861.72;;;12.92;100.00
50430;BME280;36359;41.556;-8.418;2023-12-29T11:43:14;61858.53;;;12.89;100.00
50430;BME280;36359;41.556;-8.418;2023-12-29T11:45:42;61856.34;;;12.90;100.00
50430;BME280;36359;41.556;-8.418;2023-12-29T11:48:08;61860.09;;;12.93;100.00
50430;BME280;36359;41.556;-8.418;2023-12-29T11:50:35;61859.53;;;12.95;100.00
50430;BME280;36359;41.556;-8.418;2023-12-29T11:53:08;61859.00;;;12.95;100.00
50430;BME280;36359;41.556;-8.418;2023-12-29T11:55:38;61852.13;;;12.81;100.00
50430;BME280;36359;41.556;-8.418;2023-12-29T12:00:48;61832.34;;;12.64;100.00
50430;BME280;36359;41.556;-8.418;2023-12-29T12:03:25;61829.16;;;12.61;100.00
50430;BME280;36359;41.556;-8.418;2023-12-29T12:05:52;61831.28;;;12.63;100.00
50430;BME280;36359;41.556;-8.418;2023-12-29T12:08:37;61832.34;;;12.64;100.00
50430;BME280;36359;41.556;-8.418;2023-12-29T12:13:55;61846.78;;;12.78;100.00
50430;BME280;36359;41.556;-8.418;2023-12-29T12:19:12;61839.81;;;12.74;100.00
50430;BME280;36359;41.556;-8.418;2023-12-29T12:21:38;61837.69;;;12.69;100.00
50430;BME280;36359;41.556;-8.418;2023-12-29T12:24:04;61846.78;;;12.78;100.00
50430;BME280;36359;41.556;-8.418;2023-12-29T12:26:31;61843.03;;;12.75;100.00
50430;BME280;36359;41.556;-8.418;2023-12-29T12:28:57;61840.38;;;12.69;100.00
50430;BME280;36359;41.556;-8.418;2023-12-29T12:31:24;61831.78;;;12.66;100.00
50430;BME280;36359;41.556;-8.418;2023-12-29T12:33:54;61845.63;;;12.82;100.00
50430;BME280;36359;41.556;-8.418;2023-12-29T12:36:21;61845.72;;;12.77;100.00
50430;BME280;36359;41.556;-8.418;2023-12-29T12:38:57;61848.38;;;12.80;100.00
50430;BME280;36359;41.556;-8.418;2023-12-29T12:41:24;61861.72;;;12.92;100.00
50430;BME280;36359;41.556;-8.418;2023-12-29T12:46:35;61851.03;;;12.82;100.00
50430;BME280;36359;41.556;-8.418;2023-12-29T12:49:05;61857.41;;;12.91;100.00
50430;BME280;36359;41.556;-8.418;2023-12-29T12:51:32;61863.28;;;12.96;100.00
50430;BME280;36359;41.556;-8.418;2023-12-29T12:53:59;61856.34;;;12.90;100.00
50430;BME280;36359;41.556;-8.418;2023-12-29T12:56:25;61858.00;;;12.89;100.00
50430;BME280;36359;41.556;-8.418;2023-12-29T12:58:57;61853.16;;;12.87;100.00
50430;BME280;36359;41.556;-8.418;2023-12-29T13:01:23;61853.19;;;12.84;100.00